Time;durP1;ratioP1;P1;durP2;ratioP2;P2;SDS_P1;SDS_P2;PMS_P1;PMS_P2;Temp;Humidity;BMP_temperature;BMP_pressure;BME280_temperature;BME280_humidity;BME280_pressure;Samples;Min_cycle;Max_cycle;Signal;HPM_P1;HPM_P2
2023/01/29 00:00:11;;;;;;;73.30;55.35;;;-1.00;99.90;;;;;;2108566;28;20084;-72
2023/01/29 00:01:12;;;;;;;73.15;56.00;;;-0.90;99.90;;;;;;2107215;28;20020;-71
2023/01/29 00:02:13;;;;;;;73.88;56.10;;;-1.00;99.90;;;;;;2106181;28;21360;-71
2023/01/29 00:03:14;;;;;;;78.13;57.08;;;-0.90;99.90;;;;;;2108244;28;20718;-71
2023/01/29 00:04:15;;;;;;;71.63;54.20;;;-0.90;99.90;;;;;;2108646;28;20026;-71
2023/01/29 00:05:16;;;;;;;77.72;55.95;;;-0.90;99.90;;;;;;2108118;28;20027;-71
2023/01/29 00:06:18;;;;;;;77.32;58.08;;;-0.90;99.90;;;;;;2110246;28;20038;-71
2023/01/29 00:07:18;;;;;;;77.88;57.72;;;-0.90;99.90;;;;;;2107234;28;20031;-71
2023/01/29 00:08:19;;;;;;;75.03;54.92;;;-0.90;99.90;;;;;;2106975;28;20465;-71
2023/01/29 00:09:19;;;;;;;79.55;57.45;;;-0.90;99.90;;;;;;2107727;28;20020;-71
2023/01/29 00:10:20;;;;;;;79.97;59.30;;;-0.90;99.90;;;;;;2108392;28;20065;-70
2023/01/29 00:11:20;;;;;;;82.68;59.53;;;-0.90;99.90;;;;;;2106562;28;20184;-71
2023/01/29 00:12:21;;;;;;;81.97;59.75;;;-0.90;99.90;;;;;;2108894;28;20468;-70
2023/01/29 00:13:21;;;;;;;82.63;60.50;;;-0.90;99.90;;;;;;2109422;28;20180;-71
2023/01/29 00:14:22;;;;;;;79.28;59.88;;;-0.90;99.90;;;;;;2108446;28;20085;-70
2023/01/29 00:15:22;;;;;;;81.70;59.65;;;-0.90;99.90;;;;;;2108220;28;20022;-70
2023/01/29 00:16:23;;;;;;;83.22;60.97;;;-0.90;99.90;;;;;;2109476;28;20024;-71
2023/01/29 00:17:24;;;;;;;81.03;59.13;;;-1.00;99.90;;;;;;2107508;28;20478;-70
2023/01/29 00:18:25;;;;;;;80.53;57.03;;;-1.00;99.90;;;;;;2108651;28;20032;-70
2023/01/29 00:19:26;;;;;;;81.18;58.83;;;-0.90;99.90;;;;;;2108830;28;20625;-70
2023/01/29 00:20:27;;;;;;;70.75;53.45;;;-0.90;99.90;;;;;;2109112;28;21157;-71
2023/01/29 00:21:29;;;;;;;81.00;59.53;;;-0.90;99.90;;;;;;2109804;28;20054;-70
2023/01/29 00:22:30;;;;;;;82.78;57.67;;;-0.90;99.90;;;;;;2107759;28;20028;-71
2023/01/29 00:23:30;;;;;;;90.90;61.17;;;-0.90;99.90;;;;;;2108019;28;20066;-70
2023/01/29 00:24:31;;;;;;;84.60;60.53;;;-0.90;99.90;;;;;;2107730;28;20122;-70
2023/01/29 00:25:31;;;;;;;84.43;60.75;;;-0.90;99.90;;;;;;2108361;28;20028;-70
2023/01/29 00:26:32;;;;;;;80.88;59.38;;;-0.90;99.90;;;;;;2108183;28;20016;-70
2023/01/29 00:27:33;;;;;;;75.80;56.72;;;-0.90;99.90;;;;;;2109443;27;20047;-70
2023/01/29 00:28:33;;;;;;;77.28;56.70;;;-1.00;99.90;;;;;;2108291;28;20012;-71
2023/01/29 00:29:34;;;;;;;79.80;58.13;;;-1.00;99.90;;;;;;2108033;28;20749;-70
2023/01/29 00:30:36;;;;;;;77.70;57.58;;;-1.00;99.90;;;;;;2107916;28;20039;-70
2023/01/29 00:31:36;;;;;;;74.30;54.20;;;-1.00;99.90;;;;;;2108045;28;20031;-70
2023/01/29 00:32:41;;;;;;;77.97;56.13;;;-1.00;99.90;;;;;;2109780;28;20106;-70
2023/01/29 00:33:41;;;;;;;61.15;48.08;;;-1.00;99.90;;;;;;2109863;28;20043;-70
2023/01/29 00:34:42;;;;;;;77.25;56.30;;;-1.00;99.90;;;;;;2108008;28;20042;-70
2023/01/29 00:35:42;;;;;;;75.68;55.13;;;-1.00;99.90;;;;;;2108931;28;20032;-70
2023/01/29 00:36:44;;;;;;;77.20;54.38;;;-1.00;99.90;;;;;;2107379;28;20041;-70
2023/01/29 00:37:44;;;;;;;79.75;57.65;;;-0.90;99.90;;;;;;2110061;28;20077;-70
2023/01/29 00:38:53;;;;;;;76.60;57.47;;;-0.90;99.90;;;;;;2110719;28;20539;-71
2023/01/29 00:39:53;;;;;;;80.82;58.78;;;-0.90;99.90;;;;;;2106892;28;20051;-70
2023/01/29 00:44:57;;;;;;;74.93;57.10;;;-1.00;99.90;;;;;;2108811;28;20138;-70
2023/01/29 00:45:57;;;;;;;77.30;56.13;;;-1.00;99.90;;;;;;2107597;28;20032;-70
2023/01/29 00:46:58;;;;;;;76.20;56.20;;;-1.10;99.90;;;;;;2108809;28;20095;-70
2023/01/29 00:47:59;;;;;;;67.13;50.13;;;-1.00;99.90;;;;;;2107136;28;20032;-70
2023/01/29 00:48:59;;;;;;;76.05;54.17;;;-1.00;99.90;;;;;;2107088;28;20811;-70
2023/01/29 00:50:07;;;;;;;71.47;56.03;;;-1.00;99.90;;;;;;2108028;28;20206;-70
2023/01/29 00:51:07;;;;;;;71.85;54.28;;;-1.00;99.90;;;;;;2108465;28;20868;-71
2023/01/29 00:52:23;;;;;;;74.35;54.53;;;-1.00;99.90;;;;;;2108913;27;20544;-70
2023/01/29 00:53:23;;;;;;;73.97;53.75;;;-1.00;99.90;;;;;;2108747;28;20074;-71
2023/01/29 00:54:23;;;;;;;71.72;53.22;;;-1.10;99.90;;;;;;2109201;28;20060;-71
2023/01/29 00:55:24;;;;;;;69.90;53.30;;;-1.00;99.90;;;;;;2110489;28;20082;-70
2023/01/29 00:56:26;;;;;;;75.82;55.63;;;-1.00;99.90;;;;;;2109940;28;20080;-70
2023/01/29 00:57:29;;;;;;;68.55;52.67;;;-1.00;99.90;;;;;;2107117;28;20043;-70
2023/01/29 00:58:33;;;;;;;73.13;54.17;;;-1.00;99.90;;;;;;2110954;28;20047;-70
2023/01/29 00:59:33;;;;;;;71.82;54.53;;;-1.00;99.90;;;;;;2110075;27;20078;-70
2023/01/29 01:00:34;;;;;;;70.40;53.20;;;-1.00;99.90;;;;;;2107243;28;20027;-70
2023/01/29 01:03:12;;;;;;;76.47;56.50;;;-1.10;99.90;;;;;;2107969;28;20016;-70
2023/01/29 01:04:13;;;;;;;68.28;51.50;;;-1.10;99.90;;;;;;2107891;28;20028;-72
2023/01/29 01:05:18;;;;;;;69.40;51.42;;;-1.10;99.90;;;;;;2108951;28;20542;-70
2023/01/29 01:06:18;;;;;;;73.53;54.30;;;-1.10;99.90;;;;;;2107232;28;20024;-70
2023/01/29 01:07:19;;;;;;;71.32;52.42;;;-1.10;99.90;;;;;;2107961;28;20031;-70
2023/01/29 01:11:04;;;;;;;72.88;54.63;;;-1.10;99.90;;;;;;2106696;28;20032;-70
2023/01/29 01:12:04;;;;;;;72.13;53.03;;;-1.10;99.90;;;;;;2109302;28;20030;-70
2023/01/29 01:13:06;;;;;;;71.20;53.10;;;-1.10;99.90;;;;;;2109079;28;20031;-70
2023/01/29 01:14:07;;;;;;;69.32;52.03;;;-1.10;99.90;;;;;;2109029;28;20475;-70
2023/01/29 01:15:08;;;;;;;75.05;54.55;;;-1.10;99.90;;;;;;2106550;28;20527;-70
2023/01/29 01:16:15;;;;;;;77.55;57.03;;;-1.10;99.90;;;;;;2108418;28;20027;-70
2023/01/29 01:17:16;;;;;;;73.55;54.00;;;-1.10;99.90;;;;;;2108482;28;20020;-70
2023/01/29 01:18:18;;;;;;;73.72;54.05;;;-1.10;99.90;;;;;;2106690;28;20097;-70
2023/01/29 01:19:19;;;;;;;72.57;53.63;;;-1.10;99.90;;;;;;2109030;28;20030;-70
2023/01/29 01:20:19;;;;;;;71.40;53.20;;;-1.10;99.90;;;;;;2108369;28;20027;-70
2023/01/29 01:21:20;;;;;;;76.78;54.83;;;-1.10;99.90;;;;;;2107617;28;20084;-70
2023/01/29 01:22:20;;;;;;;69.68;52.60;;;-1.10;99.90;;;;;;2108451;28;20099;-70
2023/01/29 01:23:21;;;;;;;74.43;52.78;;;-1.20;99.90;;;;;;2112415;27;20068;-70
2023/01/29 01:24:22;;;;;;;73.97;54.30;;;-1.10;99.90;;;;;;2113021;27;20102;-70
2023/01/29 01:25:24;;;;;;;73.63;54.22;;;-1.10;99.90;;;;;;2109329;28;20028;-70
2023/01/29 01:26:24;;;;;;;70.85;53.95;;;-1.10;99.90;;;;;;2107363;28;20030;-70
2023/01/29 01:27:25;;;;;;;72.28;53.58;;;-1.20;99.90;;;;;;2108819;28;20081;-70
2023/01/29 01:28:26;;;;;;;77.30;54.70;;;-1.20;99.90;;;;;;2106857;27;20024;-71
2023/01/29 01:29:27;;;;;;;73.75;53.88;;;-1.10;99.90;;;;;;2107013;28;20032;-71
2023/01/29 01:30:27;;;;;;;78.32;56.63;;;-1.20;99.90;;;;;;2108502;28;20049;-70
2023/01/29 01:31:28;;;;;;;74.60;55.30;;;-1.20;99.90;;;;;;2107753;28;20032;-70
2023/01/29 01:32:28;;;;;;;78.60;56.28;;;-1.20;99.90;;;;;;2106781;28;20043;-70
2023/01/29 01:33:29;;;;;;;75.80;55.92;;;-1.10;99.90;;;;;;2106890;28;20020;-70
2023/01/29 01:34:29;;;;;;;75.25;54.92;;;-1.10;99.90;;;;;;2106818;28;20571;-70
2023/01/29 01:35:30;;;;;;;80.63;56.28;;;-1.10;99.90;;;;;;2110056;28;20470;-71
2023/01/29 01:36:31;;;;;;;76.13;55.80;;;-1.20;99.90;;;;;;2110172;28;20027;-71
2023/01/29 01:37:31;;;;;;;75.88;54.38;;;-1.10;99.90;;;;;;2106867;28;20028;-71
2023/01/29 01:38:32;;;;;;;79.85;56.63;;;-1.10;99.90;;;;;;2106192;28;20020;-70
2023/01/29 01:39:32;;;;;;;80.18;56.83;;;-1.10;99.90;;;;;;2105955;28;20824;-70
2023/01/29 01:40:33;;;;;;;77.60;56.17;;;-1.10;99.90;;;;;;2108493;28;20047;-71
2023/01/29 01:41:33;;;;;;;79.03;56.47;;;-1.10;99.90;;;;;;2109228;28;20020;-71
2023/01/29 01:42:34;;;;;;;73.25;53.75;;;-1.10;99.90;;;;;;2108927;28;20469;-71
2023/01/29 01:43:50;;;;;;;75.90;57.30;;;-1.10;99.90;;;;;;2105414;28;20112;-71
2023/01/29 01:45:06;;;;;;;77.68;55.38;;;-1.10;99.90;;;;;;2107410;28;20042;-71
2023/01/29 01:46:08;;;;;;;78.55;56.35;;;-1.10;99.90;;;;;;2108754;28;20467;-70
2023/01/29 01:47:09;;;;;;;79.30;58.72;;;-1.10;99.90;;;;;;2106468;28;20078;-70
2023/01/29 01:48:11;;;;;;;78.15;57.08;;;-1.10;99.90;;;;;;2107563;28;20076;-70
2023/01/29 01:49:18;;;;;;;78.65;57.22;;;-1.10;99.90;;;;;;2107469;28;20031;-70
2023/01/29 01:50:51;;;;;;;78.80;56.67;;;-1.10;99.90;;;;;;2106614;28;20653;-71
2023/01/29 01:51:52;;;;;;;75.97;57.88;;;-1.10;99.90;;;;;;2106417;28;20119;-71
2023/01/29 01:52:58;;;;;;;79.07;56.42;;;-1.10;99.90;;;;;;2108124;28;20024;-71
2023/01/29 01:54:02;;;;;;;74.30;55.60;;;-1.10;99.90;;;;;;2105149;28;20418;-70
2023/01/29 01:55:03;;;;;;;79.97;58.03;;;-1.10;99.90;;;;;;2108032;28;20054;-70
2023/01/29 01:56:09;;;;;;;81.38;58.45;;;-1.10;99.90;;;;;;2107570;28;20072;-70
2023/01/29 01:57:16;;;;;;;79.97;57.80;;;-1.10;99.90;;;;;;2106100;28;20471;-71
2023/01/29 01:58:28;;;;;;;78.70;56.03;;;-1.10;99.90;;;;;;2108078;28;20028;-71
2023/01/29 01:59:32;;;;;;;78.80;57.78;;;-1.10;99.90;;;;;;2107853;28;20020;-70
2023/01/29 02:00:33;;;;;;;78.68;57.47;;;-1.10;99.90;;;;;;2111856;28;20076;-71
2023/01/29 02:01:34;;;;;;;78.68;57.67;;;-1.10;99.90;;;;;;2111895;28;20054;-71
2023/01/29 02:09:35;;;;;;;87.22;67.72;;;-1.10;99.90;;;;;;2108641;28;20039;-71
2023/01/29 02:10:42;;;;;;;88.70;68.30;;;-1.10;99.90;;;;;;2108315;28;20020;-71
2023/01/29 02:11:43;;;;;;;82.50;64.15;;;-1.00;99.90;;;;;;2107026;28;20028;-70
2023/01/29 02:12:45;;;;;;;86.53;66.65;;;-1.00;99.90;;;;;;2107699;28;20024;-70
2023/01/29 02:13:45;;;;;;;84.97;66.00;;;-1.10;99.90;;;;;;2107709;28;20019;-70
2023/01/29 02:14:46;;;;;;;90.50;69.88;;;-1.00;99.90;;;;;;2107076;28;20024;-70
2023/01/29 02:15:49;;;;;;;87.20;67.85;;;-1.00;99.90;;;;;;2107564;28;20136;-71
2023/01/29 02:16:49;;;;;;;91.82;68.45;;;-1.00;99.90;;;;;;2107139;28;20100;-70
2023/01/29 02:17:50;;;;;;;86.47;66.18;;;-1.00;99.90;;;;;;2107727;28;20061;-70
2023/01/29 02:18:50;;;;;;;85.97;65.97;;;-1.00;99.90;;;;;;2107582;28;20094;-70
2023/01/29 02:20:06;;;;;;;77.80;63.42;;;-1.00;99.90;;;;;;2108085;28;20539;-70
2023/01/29 02:21:24;;;;;;;86.68;68.15;;;-1.00;99.90;;;;;;2108768;28;20027;-70
2023/01/29 02:22:41;;;;;;;84.07;67.28;;;-1.00;99.90;;;;;;2108287;28;20016;-70
2023/01/29 02:24:16;;;;;;;90.05;68.45;;;-1.00;99.90;;;;;;2106706;28;20600;-70
2023/01/29 02:25:44;;;;;;;90.55;70.43;;;-1.10;99.90;;;;;;2107600;28;20434;-70
2023/01/29 02:27:03;;;;;;;92.22;72.13;;;-1.10;99.90;;;;;;2105927;28;20030;-70
2023/01/29 02:28:15;;;;;;;94.32;73.35;;;-1.10;99.90;;;;;;2109725;28;20025;-70
2023/01/29 02:29:44;;;;;;;95.20;70.75;;;-1.10;99.90;;;;;;2107763;28;20528;-70
2023/01/29 02:31:00;;;;;;;90.00;69.57;;;-1.10;99.90;;;;;;2108200;28;20019;-70
2023/01/29 02:32:13;;;;;;;93.50;70.32;;;-1.10;99.90;;;;;;2107836;28;20045;-70
2023/01/29 02:33:30;;;;;;;92.15;70.88;;;-1.10;99.90;;;;;;2108350;28;20015;-71
2023/01/29 02:36:31;;;;;;;86.95;66.80;;;-1.10;99.90;;;;;;2107035;28;20040;-70
2023/01/29 02:37:42;;;;;;;94.38;71.43;;;-1.20;99.90;;;;;;2107963;28;20020;-70
2023/01/29 02:39:12;;;;;;;94.05;72.03;;;-1.20;99.90;;;;;;2108737;28;20070;-71
2023/01/29 02:40:30;;;;;;;98.40;73.55;;;-1.20;99.90;;;;;;2097744;28;20412;-70
2023/01/29 02:41:42;;;;;;;97.53;76.10;;;-1.20;99.90;;;;;;2100128;28;20037;-70
2023/01/29 02:42:54;;;;;;;84.35;67.47;;;-1.20;99.90;;;;;;2109728;28;20062;-70
2023/01/29 02:44:05;;;;;;;88.15;68.68;;;-1.20;99.90;;;;;;2109553;28;20664;-70
2023/01/29 02:45:14;;;;;;;92.18;69.65;;;-1.20;99.90;;;;;;2108379;28;20024;-70
2023/01/29 02:46:37;;;;;;;100.78;77.18;;;-1.20;99.90;;;;;;2108493;28;20777;-70
2023/01/29 02:47:44;;;;;;;98.15;75.78;;;-1.20;99.90;;;;;;2107639;28;20028;-70
2023/01/29 02:49:05;;;;;;;95.60;73.88;;;-1.20;99.90;;;;;;2109592;28;20012;-70
2023/01/29 02:50:20;;;;;;;98.57;75.70;;;-1.20;99.90;;;;;;2107632;28;20043;-70
2023/01/29 02:51:49;;;;;;;103.28;79.10;;;-1.20;99.90;;;;;;2109158;28;20135;-70
2023/01/29 02:52:50;;;;;;;99.47;76.20;;;-1.20;99.90;;;;;;2108884;28;20487;-70
2023/01/29 02:54:01;;;;;;;99.78;75.70;;;-1.20;99.90;;;;;;2108949;28;20707;-70
2023/01/29 02:55:23;;;;;;;100.50;77.32;;;-1.20;99.90;;;;;;2106823;28;20471;-70
2023/01/29 02:56:33;;;;;;;102.43;77.25;;;-1.20;99.90;;;;;;2105973;28;20031;-71
2023/01/29 02:57:36;;;;;;;;;;;-1.20;99.90;;;;;;2109137;28;20030;-70
2023/01/29 02:58:43;;;;;;;102.78;79.13;;;-1.40;99.90;;;;;;2108503;28;19912;-71
2023/01/29 02:59:49;;;;;;;106.57;79.78;;;-1.30;99.90;;;;;;2108470;28;20387;-70
2023/01/29 03:00:52;;;;;;;102.50;80.53;;;-1.30;99.90;;;;;;2106980;28;20020;-70
2023/01/29 03:02:01;;;;;;;104.93;81.85;;;-1.30;99.90;;;;;;2107923;28;20411;-70
2023/01/29 03:03:24;;;;;;;103.47;83.97;;;-1.30;99.90;;;;;;2112854;27;20406;-70
2023/01/29 03:04:31;;;;;;;107.72;81.22;;;-1.30;99.90;;;;;;2111186;27;20039;-70
2023/01/29 03:05:54;;;;;;;104.97;80.75;;;-1.30;99.90;;;;;;2108499;28;20433;-70
2023/01/29 03:07:01;;;;;;;103.35;77.22;;;-1.30;99.90;;;;;;2107498;28;21486;-71
2023/01/29 03:08:09;;;;;;;101.32;78.47;;;-1.30;99.90;;;;;;2110224;28;20429;-71
2023/01/29 03:09:15;;;;;;;105.28;78.55;;;-1.30;99.90;;;;;;2109210;28;20745;-70
2023/01/29 03:10:25;;;;;;;104.88;82.13;;;-1.30;99.90;;;;;;2107264;28;20059;-70
2023/01/29 03:11:33;;;;;;;103.20;79.72;;;-1.20;99.90;;;;;;2109438;28;20047;-70
2023/01/29 03:12:39;;;;;;;104.72;79.65;;;-1.20;99.90;;;;;;2108959;28;20072;-70
2023/01/29 03:14:04;;;;;;;103.15;78.90;;;-1.30;99.90;;;;;;2110335;28;20020;-70
2023/01/29 03:15:10;;;;;;;95.93;75.35;;;-1.20;99.90;;;;;;2108971;28;20034;-70
2023/01/29 03:16:23;;;;;;;99.38;76.03;;;-1.20;99.90;;;;;;2106997;28;20031;-70
2023/01/29 03:17:28;;;;;;;107.28;78.07;;;-1.20;99.90;;;;;;2106917;28;20044;-70
2023/01/29 03:18:42;;;;;;;102.15;76.68;;;-1.20;99.90;;;;;;2108394;28;20081;-70
2023/01/29 03:19:46;;;;;;;99.85;78.15;;;-1.20;99.90;;;;;;2106700;28;20043;-70
2023/01/29 03:20:50;;;;;;;103.43;79.88;;;-1.10;99.90;;;;;;2108957;28;20039;-70
2023/01/29 03:21:58;;;;;;;98.32;76.80;;;-1.10;99.90;;;;;;2109471;28;20024;-70
2023/01/29 03:23:09;;;;;;;100.18;77.80;;;-1.10;99.90;;;;;;2107475;27;20028;-70
2023/01/29 03:32:25;;;;;;;98.38;74.63;;;-1.10;99.90;;;;;;2107570;28;20035;-71
2023/01/29 03:33:31;;;;;;;96.47;75.50;;;-1.10;99.90;;;;;;2109625;28;20401;-70
2023/01/29 03:34:45;;;;;;;99.57;75.93;;;-1.10;99.90;;;;;;2109589;28;20587;-70
2023/01/29 03:35:59;;;;;;;98.60;75.32;;;-1.00;99.90;;;;;;2109359;28;20035;-70
2023/01/29 03:37:08;;;;;;;100.45;74.57;;;-1.10;99.90;;;;;;2109361;28;20095;-70
2023/01/29 03:38:10;;;;;;;98.82;76.15;;;-1.00;99.90;;;;;;2109872;28;20027;-70
2023/01/29 03:39:14;;;;;;;99.78;77.07;;;-1.00;99.90;;;;;;2106921;28;20028;-70
2023/01/29 03:40:15;;;;;;;101.05;77.20;;;-1.00;99.90;;;;;;2107137;28;20554;-70
2023/01/29 03:41:32;;;;;;;96.40;76.38;;;-1.00;99.90;;;;;;2110020;28;20539;-70
2023/01/29 03:42:49;;;;;;;99.10;76.25;;;-1.00;99.90;;;;;;2109207;28;20020;-71
2023/01/29 03:43:57;;;;;;;99.80;76.45;;;-1.00;99.90;;;;;;2108419;28;20107;-70
2023/01/29 03:45:07;;;;;;;99.90;78.97;;;-1.00;99.90;;;;;;2109350;28;20638;-70
2023/01/29 03:46:23;;;;;;;100.78;77.80;;;-1.00;99.90;;;;;;2108479;28;20027;-70
2023/01/29 03:47:39;;;;;;;96.20;75.10;;;-1.00;99.90;;;;;;2108013;28;20119;-70
2023/01/29 03:48:57;;;;;;;99.10;77.45;;;-1.00;99.90;;;;;;2108981;28;20034;-70
2023/01/29 03:50:29;;;;;;;102.63;77.25;;;-1.00;99.90;;;;;;2107492;28;20055;-70
2023/01/29 03:51:41;;;;;;;97.93;74.80;;;-1.00;99.90;;;;;;2107037;28;20171;-70
2023/01/29 03:52:52;;;;;;;97.22;75.85;;;-1.00;99.90;;;;;;2107142;28;20435;-70
2023/01/29 03:53:56;;;;;;;95.85;75.53;;;-1.00;99.90;;;;;;2108657;28;20082;-70
2023/01/29 03:55:09;;;;;;;94.45;76.13;;;-1.00;99.90;;;;;;2108791;28;20032;-71
2023/01/29 03:56:49;;;;;;;95.75;75.03;;;-1.00;99.90;;;;;;2107178;28;20051;-70
2023/01/29 03:58:19;;;;;;;97.03;73.38;;;-1.00;99.90;;;;;;2108629;28;20028;-70
2023/01/29 03:59:36;;;;;;;92.85;71.68;;;-1.10;99.90;;;;;;2106751;28;20146;-70
2023/01/29 04:00:59;;;;;;;92.22;73.22;;;-1.00;99.90;;;;;;2109137;28;20538;-70
2023/01/29 04:02:04;;;;;;;94.38;71.93;;;-1.00;99.90;;;;;;2107256;28;20774;-70
2023/01/29 04:03:21;;;;;;;95.65;73.50;;;-1.00;99.90;;;;;;2106622;28;20029;-70
2023/01/29 04:04:35;;;;;;;93.13;72.40;;;-1.00;99.90;;;;;;2109532;28;20085;-70
2023/01/29 04:05:48;;;;;;;95.32;70.82;;;-1.00;99.90;;;;;;2109108;28;20359;-70
2023/01/29 04:06:51;;;;;;;97.68;74.22;;;-1.00;99.90;;;;;;2108780;28;20055;-70
2023/01/29 04:08:01;;;;;;;94.22;72.88;;;-1.00;99.90;;;;;;2109577;28;21247;-70
2023/01/29 04:09:16;;;;;;;92.75;72.35;;;-1.00;99.90;;;;;;2109516;28;20015;-70
2023/01/29 04:10:20;;;;;;;93.30;74.35;;;-1.00;99.90;;;;;;2107565;28;20032;-70
2023/01/29 04:11:22;;;;;;;94.38;75.05;;;-0.90;99.90;;;;;;2110452;28;20030;-70
2023/01/29 04:12:27;;;;;;;94.38;74.82;;;-0.90;99.90;;;;;;2108851;28;20036;-70
2023/01/29 04:13:30;;;;;;;98.57;75.65;;;-0.90;99.90;;;;;;2109248;28;20403;-70
2023/01/29 04:14:31;;;;;;;99.75;76.60;;;-0.90;99.90;;;;;;2108809;28;20032;-70
2023/01/29 04:15:39;;;;;;;94.22;75.35;;;-0.90;99.90;;;;;;2108500;28;20027;-70
2023/01/29 04:16:48;;;;;;;92.85;72.60;;;-0.80;99.90;;;;;;2108586;28;20031;-70
2023/01/29 04:17:51;;;;;;;96.00;74.38;;;-0.80;99.90;;;;;;2107069;28;20032;-70
2023/01/29 04:18:53;;;;;;;98.30;77.80;;;-0.80;99.90;;;;;;2107488;28;20039;-70
2023/01/29 04:19:54;;;;;;;91.30;71.40;;;-0.80;99.90;;;;;;2107453;28;20024;-70
2023/01/29 04:20:55;;;;;;;94.38;73.53;;;-0.80;99.90;;;;;;2106403;28;20027;-70
2023/01/29 04:22:19;;;;;;;97.70;74.85;;;-0.80;99.90;;;;;;2108321;28;21410;-71
2023/01/29 04:23:25;;;;;;;92.40;69.82;;;-0.80;99.90;;;;;;2109722;28;20020;-70
2023/01/29 04:24:25;;;;;;;95.32;74.03;;;-0.80;99.90;;;;;;2107437;28;20777;-70
2023/01/29 04:25:30;;;;;;;94.43;71.82;;;-0.80;99.90;;;;;;2110744;28;20598;-70
2023/01/29 04:26:49;;;;;;;95.68;73.45;;;-0.80;99.90;;;;;;2109868;28;20016;-70
2023/01/29 04:28:03;;;;;;;92.47;73.47;;;-0.70;99.90;;;;;;2109003;28;20028;-70
2023/01/29 04:29:37;;;;;;;94.38;72.60;;;-0.70;99.90;;;;;;2108643;28;20036;-70
2023/01/29 04:31:01;;;;;;;92.18;71.47;;;-0.70;99.90;;;;;;2107905;28;20422;-70
2023/01/29 04:32:17;;;;;;;93.68;74.93;;;-0.70;99.90;;;;;;2108074;28;20365;-70
2023/01/29 04:33:38;;;;;;;95.75;74.15;;;-0.70;99.90;;;;;;2108132;28;20032;-70
2023/01/29 04:34:52;;;;;;;93.55;70.20;;;-0.70;99.90;;;;;;2107327;28;20020;-70
2023/01/29 04:36:17;;;;;;;92.15;72.90;;;-0.70;99.90;;;;;;2109195;28;20028;-70
2023/01/29 04:37:49;;;;;;;93.63;72.80;;;-0.70;99.90;;;;;;2108915;28;20031;-70
2023/01/29 04:39:01;;;;;;;89.60;71.32;;;-0.70;99.90;;;;;;2106698;28;20067;-70
2023/01/29 04:40:17;;;;;;;94.47;73.13;;;-0.60;99.90;;;;;;2107547;28;20036;-70
2023/01/29 04:41:35;;;;;;;90.93;69.45;;;-0.60;99.90;;;;;;2108817;28;20027;-70
2023/01/29 04:42:43;;;;;;;91.55;71.03;;;-0.60;99.90;;;;;;2106269;28;20383;-70
2023/01/29 04:44:09;;;;;;;95.30;73.32;;;-0.60;99.90;;;;;;2106644;28;20026;-70
2023/01/29 04:45:34;;;;;;;94.22;74.18;;;-0.60;99.90;;;;;;2107340;28;20172;-70
2023/01/29 04:46:56;;;;;;;96.50;73.72;;;-0.60;99.90;;;;;;2106436;28;20023;-70
2023/01/29 04:48:26;;;;;;;93.38;73.80;;;-0.50;99.90;;;;;;2107761;28;20435;-70
2023/01/29 04:50:04;;;;;;;93.03;72.75;;;-0.50;99.90;;;;;;2107133;28;20106;-70
2023/01/29 04:51:16;;;;;;;92.80;71.95;;;-0.50;99.90;;;;;;2095745;28;20040;-70
2023/01/29 04:52:31;;;;;;;95.15;72.85;;;-0.50;99.90;;;;;;2107219;28;20074;-70
2023/01/29 04:53:38;;;;;;;92.50;72.20;;;-0.50;99.90;;;;;;2108217;28;20031;-70
2023/01/29 04:54:57;;;;;;;91.53;71.55;;;-0.40;99.90;;;;;;2106396;28;20031;-70
2023/01/29 04:56:03;;;;;;;89.82;71.40;;;-0.40;99.90;;;;;;2107299;28;20729;-70
2023/01/29 04:57:24;;;;;;;92.07;71.53;;;-0.40;99.90;;;;;;2109987;28;20139;-70
2023/01/29 04:58:27;;;;;;;91.35;70.57;;;-0.40;99.90;;;;;;2109340;28;20635;-70
2023/01/29 04:59:36;;;;;;;95.57;73.32;;;-0.40;99.90;;;;;;2109631;28;20147;-71
2023/01/29 05:00:42;;;;;;;93.47;72.32;;;-0.30;99.90;;;;;;2109819;28;20028;-70
2023/01/29 05:01:44;;;;;;;92.55;71.28;;;-0.30;99.90;;;;;;2112185;27;20031;-70
2023/01/29 05:02:46;;;;;;;92.65;70.80;;;-0.30;99.90;;;;;;2106198;28;20075;-70
2023/01/29 05:03:50;;;;;;;93.20;70.53;;;-0.30;99.90;;;;;;2107171;28;20032;-70
2023/01/29 05:04:53;;;;;;;89.13;69.57;;;-0.20;99.90;;;;;;2106503;28;20140;-70
2023/01/29 05:05:56;;;;;;;91.93;73.65;;;-0.20;99.90;;;;;;2108311;28;20102;-70
2023/01/29 05:06:59;;;;;;;86.60;69.10;;;-0.20;99.90;;;;;;2107292;28;20550;-70
2023/01/29 05:08:01;;;;;;;92.47;72.25;;;-0.10;99.90;;;;;;2109018;28;20077;-70
2023/01/29 05:09:03;;;;;;;89.72;69.30;;;-0.10;99.90;;;;;;2108286;28;20028;-70
2023/01/29 05:10:06;;;;;;;90.72;70.88;;;-0.10;99.90;;;;;;2107225;28;20600;-70
2023/01/29 05:11:09;;;;;;;86.97;70.43;;;-0.10;99.90;;;;;;2106121;28;20194;-70
2023/01/29 05:12:11;;;;;;;88.32;67.80;;;-0.10;99.90;;;;;;2107613;28;20103;-70
2023/01/29 05:13:14;;;;;;;89.20;69.05;;;-0.10;99.90;;;;;;2108905;28;20060;-70
2023/01/29 05:14:18;;;;;;;89.05;70.47;;;0.00;99.90;;;;;;2106534;28;20024;-71
2023/01/29 05:15:26;;;;;;;87.50;69.47;;;0.00;99.90;;;;;;2110075;28;20050;-70
2023/01/29 05:16:40;;;;;;;86.10;67.75;;;0.00;99.90;;;;;;2108976;28;20032;-70
2023/01/29 05:17:41;;;;;;;83.93;66.72;;;0.10;99.90;;;;;;2106068;28;20066;-71
2023/01/29 05:18:42;;;;;;;84.50;66.47;;;0.10;99.90;;;;;;2108909;28;21608;-70
2023/01/29 05:19:43;;;;;;;84.22;65.80;;;0.10;99.90;;;;;;2109308;28;20059;-70
2023/01/29 05:20:45;;;;;;;81.78;65.00;;;0.10;99.90;;;;;;2108079;28;20677;-70
2023/01/29 05:21:48;;;;;;;85.30;64.75;;;0.10;99.90;;;;;;2108263;28;20495;-70
2023/01/29 05:22:49;;;;;;;83.90;64.82;;;0.10;99.90;;;;;;2109035;28;20395;-70
2023/01/29 05:24:11;;;;;;;78.15;62.83;;;0.20;99.90;;;;;;2109975;28;20044;-70
2023/01/29 05:25:25;;;;;;;79.07;62.50;;;0.20;99.90;;;;;;2108225;28;20072;-70
2023/01/29 05:29:06;;;;;;;78.60;59.72;;;0.10;99.90;;;;;;2107478;28;20066;-70
2023/01/29 05:30:09;;;;;;;78.25;61.72;;;0.20;99.90;;;;;;2107939;28;20020;-70
2023/01/29 05:31:09;;;;;;;74.05;59.45;;;0.20;99.90;;;;;;2109219;28;20465;-70
2023/01/29 05:32:10;;;;;;;76.10;58.70;;;0.20;99.90;;;;;;2106427;28;20031;-70
2023/01/29 05:33:15;;;;;;;74.82;59.28;;;0.20;99.90;;;;;;2108348;28;20028;-70
2023/01/29 05:34:16;;;;;;;77.43;59.40;;;0.30;99.90;;;;;;2110245;28;20027;-70
2023/01/29 05:35:16;;;;;;;74.82;58.10;;;0.30;99.90;;;;;;2108849;28;20028;-70
2023/01/29 05:36:17;;;;;;;70.55;54.90;;;0.30;99.90;;;;;;2108632;28;20094;-70
2023/01/29 05:37:17;;;;;;;71.20;54.95;;;0.30;99.90;;;;;;2106150;28;20024;-70
2023/01/29 05:38:19;;;;;;;69.53;51.72;;;0.30;99.90;;;;;;2108945;28;20020;-70
2023/01/29 05:39:20;;;;;;;72.63;52.65;;;0.30;99.90;;;;;;2107121;28;20057;-70
2023/01/29 05:40:20;;;;;;;75.50;53.35;;;0.30;99.90;;;;;;2105707;28;20032;-70
2023/01/29 05:41:21;;;;;;;71.95;52.35;;;0.30;99.90;;;;;;2108372;28;20794;-70
2023/01/29 05:42:21;;;;;;;72.70;51.60;;;0.30;99.90;;;;;;2108962;28;21023;-70
2023/01/29 05:43:24;;;;;;;74.35;53.42;;;0.30;99.90;;;;;;2109198;28;20090;-70
2023/01/29 05:44:24;;;;;;;70.32;49.92;;;0.30;99.90;;;;;;2108689;28;20822;-70
2023/01/29 05:45:25;;;;;;;70.38;51.42;;;0.40;99.90;;;;;;2100475;28;20516;-70
2023/01/29 05:46:25;;;;;;;72.88;50.53;;;0.40;99.90;;;;;;2108921;28;20031;-70
2023/01/29 05:47:26;;;;;;;71.88;51.38;;;0.40;99.90;;;;;;2108079;28;20682;-70
2023/01/29 05:48:28;;;;;;;73.30;50.83;;;0.40;99.90;;;;;;2108877;28;20553;-70
2023/01/29 05:49:28;;;;;;;69.43;50.78;;;0.40;99.90;;;;;;2106756;28;20032;-70
2023/01/29 05:50:29;;;;;;;68.80;50.58;;;0.40;99.90;;;;;;2108707;28;20099;-70
2023/01/29 05:51:29;;;;;;;65.30;48.17;;;0.40;99.90;;;;;;2107615;28;20023;-70
2023/01/29 05:52:30;;;;;;;72.43;49.53;;;0.50;99.90;;;;;;2109395;28;20111;-70
2023/01/29 05:53:32;;;;;;;68.82;49.22;;;0.50;99.90;;;;;;2109624;28;20452;-70
2023/01/29 05:54:32;;;;;;;70.00;49.33;;;0.50;99.90;;;;;;2107357;28;20924;-71
2023/01/29 05:55:33;;;;;;;71.97;50.70;;;0.50;99.90;;;;;;2108638;28;20418;-70
2023/01/29 05:56:33;;;;;;;68.18;48.70;;;0.50;99.90;;;;;;2107676;28;20020;-70
2023/01/29 05:57:34;;;;;;;68.63;49.53;;;0.50;99.90;;;;;;2108204;28;20059;-70
2023/01/29 05:58:34;;;;;;;72.13;51.50;;;0.50;99.90;;;;;;2108029;28;20020;-70
2023/01/29 05:59:35;;;;;;;66.85;47.85;;;0.50;99.90;;;;;;2108622;28;20036;-70
2023/01/29 06:00:36;;;;;;;66.30;48.63;;;0.50;99.90;;;;;;2108608;28;20078;-70
2023/01/29 06:01:36;;;;;;;68.22;48.88;;;0.60;99.90;;;;;;2108355;28;20423;-70
2023/01/29 06:02:37;;;;;;;69.32;49.95;;;0.60;99.90;;;;;;2107552;28;20543;-71
2023/01/29 06:03:37;;;;;;;68.13;48.97;;;0.60;99.90;;;;;;2108018;28;20065;-71
2023/01/29 06:04:38;;;;;;;65.57;47.78;;;0.60;99.90;;;;;;2106334;28;20093;-70
2023/01/29 06:05:39;;;;;;;67.53;49.92;;;0.60;99.90;;;;;;2107316;28;20062;-70
2023/01/29 06:06:39;;;;;;;68.80;49.17;;;0.60;99.90;;;;;;2107718;28;20034;-70